Time;durP1;ratioP1;P1;durP2;ratioP2;P2;SDS_P1;SDS_P2;PMS_P1;PMS_P2;Temp;Humidity;BMP_temperature;BMP_pressure;BME280_temperature;BME280_humidity;BME280_pressure;Samples;Min_cycle;Max_cycle;Signal;HPM_P1;HPM_P2
2021/05/12 00:02:20;;;;;;;22.95;10.95;;;;;;;11.05;96.27;99642.22;4411979;32;20541;-73
2021/05/12 00:04:45;;;;;;;22.58;11.95;;;;;;;11.09;96.46;99651.28;4413776;32;20042;-72
2021/05/12 00:07:11;;;;;;;17.83;10.93;;;;;;;11.14;96.52;99648.63;4413967;32;20103;-74
2021/05/12 00:09:38;;;;;;;19.42;11.50;;;;;;;11.20;95.81;99655.19;4413555;32;20282;-74
2021/05/12 00:12:05;;;;;;;21.87;10.98;;;;;;;11.27;95.67;99662.56;4412309;32;20077;-76
2021/05/12 00:14:31;;;;;;;25.25;12.15;;;;;;;11.24;95.20;99647.41;4413420;32;20078;-77
2021/05/12 00:17:00;;;;;;;21.70;12.40;;;;;;;11.26;95.32;99652.56;4414076;32;20039;-73
2021/05/12 00:19:27;;;;;;;26.83;13.68;;;;;;;11.28;95.03;99650.03;4413812;32;21013;-74
2021/05/12 00:22:00;;;;;;;22.08;12.75;;;;;;;11.28;94.56;99648.03;4414711;32;20078;-73
2021/05/12 00:24:26;;;;;;;22.73;13.13;;;;;;;11.22;93.20;99647.06;4413988;32;20140;-74
2021/05/12 00:26:52;;;;;;;20.58;12.15;;;;;;;11.24;93.67;99653.03;4412291;32;20029;-74
2021/05/12 00:29:18;;;;;;;18.83;11.43;;;;;;;11.20;93.68;99643.19;4412559;32;20494;-72
2021/05/12 00:31:45;;;;;;;21.70;11.73;;;;;;;11.24;94.21;99641.78;4411934;32;20079;-75
2021/05/12 00:34:11;;;;;;;21.58;12.73;;;;;;;11.26;93.74;99638.47;4414270;32;20095;-75
2021/05/12 00:36:37;;;;;;;22.83;12.93;;;;;;;11.21;93.56;99637.06;4415298;32;20045;-75
2021/05/12 00:39:06;;;;;;;18.10;11.15;;;;;;;11.25;94.13;99634.09;4414635;32;20360;-73
2021/05/12 00:41:34;;;;;;;19.08;10.50;;;;;;;11.28;93.74;99639.56;4412405;32;20166;-74
2021/05/12 00:44:00;;;;;;;19.20;11.20;;;;;;;11.26;93.47;99635.66;4414826;32;20069;-74
2021/05/12 00:46:26;;;;;;;18.60;11.50;;;;;;;11.27;93.29;99634.41;4410835;32;20082;-73
2021/05/12 00:48:51;;;;;;;20.67;10.52;;;;;;;11.21;92.98;99631.44;4410319;32;20014;-75
2021/05/12 00:51:17;;;;;;;19.40;11.15;;;;;;;11.18;92.67;99640.84;4413912;32;20082;-73
2021/05/12 00:53:42;;;;;;;16.83;10.55;;;;;;;11.18;92.49;99638.00;4413514;32;20089;-74
2021/05/12 00:56:12;;;;;;;22.50;12.20;;;;;;;11.21;92.56;99642.72;4412207;32;20022;-73
2021/05/12 00:58:38;;;;;;;19.52;11.93;;;;;;;11.22;92.73;99635.03;4412540;32;20089;-74
2021/05/12 01:01:05;;;;;;;18.62;12.07;;;;;;;11.20;92.35;99632.69;4415608;32;20042;-73
2021/05/12 01:03:30;;;;;;;21.95;12.73;;;;;;;11.21;92.70;99636.28;4411453;32;20083;-74
2021/05/12 01:08:31;;;;;;;21.15;13.35;;;;;;;11.61;90.35;99639.69;3968217;32;15158585;-73
2021/05/12 01:10:57;;;;;;;23.35;13.95;;;;;;;11.61;90.35;99639.69;4425969;32;20056;-74
2021/05/12 01:13:25;;;;;;;26.25;14.18;;;;;;;11.18;91.67;99634.41;4426984;32;20496;-75
2021/05/12 01:15:51;;;;;;;24.87;14.68;;;;;;;11.19;91.83;99641.59;4426632;32;20089;-74
2021/05/12 01:18:20;;;;;;;26.50;15.27;;;;;;;11.21;92.63;99642.72;4426311;32;20057;-74
2021/05/12 01:23:25;;;;;;;25.08;15.27;;;;;;;11.30;92.62;99631.44;3954965;32;15723306;-74
2021/05/12 01:25:53;;;;;;;23.60;14.40;;;;;;;11.16;93.97;99640.50;4427802;32;20140;-74
2021/05/12 01:28:21;;;;;;;21.33;11.88;;;;;;;11.13;94.54;99635.81;4430248;32;20366;-74
2021/05/12 01:30:56;;;;;;;20.35;11.65;;;;;;;11.18;94.21;99640.03;4428951;32;20059;-74
2021/05/12 01:33:22;;;;;;;17.15;8.85;;;;;;;11.19;94.17;99638.78;4428134;32;20092;-74
2021/05/12 01:35:48;;;;;;;20.12;10.98;;;;;;;11.18;93.80;99640.03;4429699;32;20048;-74
2021/05/12 01:38:14;;;;;;;17.65;10.00;;;;;;;11.15;92.95;99636.13;4426224;32;20038;-73
2021/05/12 01:40:40;;;;;;;14.60;9.07;;;;;;;11.14;92.97;99640.19;4428810;32;20100;-74
2021/05/12 01:43:07;;;;;;;15.38;9.98;;;;;;;10.96;91.00;99645.81;4427998;32;20081;-75
2021/05/12 01:45:33;;;;;;;20.02;11.18;;;;;;;10.98;92.61;99645.34;4427696;32;20087;-74
2021/05/12 01:47:58;;;;;;;17.62;10.13;;;;;;;10.97;93.89;99647.38;4428344;32;20367;-73
2021/05/12 01:50:24;;;;;;;14.50;8.90;;;;;;;11.01;93.75;99644.41;4430313;32;20033;-74
2021/05/12 01:52:50;;;;;;;16.67;10.10;;;;;;;10.99;92.94;99644.09;4427787;32;20138;-75
2021/05/12 01:55:16;;;;;;;18.27;10.75;;;;;;;11.04;93.25;99640.63;4427424;32;20195;-74
2021/05/12 01:57:44;;;;;;;20.37;11.27;;;;;;;10.95;92.21;99649.09;4425223;32;20407;-73
2021/05/12 02:03:00;;;;;;;19.77;10.57;;;;;;;11.47;91.58;99643.94;4000756;31;15019254;-72
2021/05/12 02:05:27;;;;;;;15.55;9.07;;;;;;;11.47;91.58;99643.94;4455303;32;20190;-74
2021/05/12 02:07:57;;;;;;;15.70;9.15;;;;;;;11.06;92.64;99650.22;4454145;32;20120;-72
2021/05/12 02:10:24;;;;;;;17.12;9.63;;;;;;;10.99;91.34;99644.09;4454771;32;20317;-73
2021/05/12 02:12:51;;;;;;;16.35;9.20;;;;;;;10.96;91.35;99647.84;4452832;32;20091;-73
2021/05/12 02:15:17;;;;;;;15.43;9.85;;;;;;;10.95;92.31;99647.06;4453932;32;20507;-73
2021/05/12 02:17:43;;;;;;;14.15;9.40;;;;;;;11.03;92.54;99653.16;4453213;32;20059;-73
2021/05/12 02:20:11;;;;;;;15.43;9.73;;;;;;;11.01;91.88;99653.62;4451955;32;20029;-73
2021/05/12 02:22:37;;;;;;;12.77;8.43;;;;;;;11.02;91.35;99643.16;4456462;32;21037;-73
2021/05/12 02:25:05;;;;;;;14.25;9.02;;;;;;;10.99;91.22;99644.88;4454405;32;20067;-74
2021/05/12 02:27:31;;;;;;;14.70;8.90;;;;;;;10.98;91.02;99651.75;4454361;32;20447;-74
2021/05/12 02:30:01;;;;;;;15.82;9.23;;;;;;;10.98;90.90;99651.75;4448943;32;20061;-75
2021/05/12 02:32:28;;;;;;;15.00;8.68;;;;;;;11.01;90.74;99648.00;4451512;32;20421;-75
2021/05/12 02:34:55;;;;;;;16.98;9.73;;;;;;;11.03;90.80;99650.34;4448705;32;20120;-74
2021/05/12 02:37:20;;;;;;;14.02;9.20;;;;;;;10.98;90.38;99653.81;4455044;32;20081;-74
2021/05/12 02:39:46;;;;;;;13.88;9.15;;;;;;;11.00;90.43;99648.47;4452937;32;20103;-76
2021/05/12 02:42:12;;;;;;;16.80;10.23;;;;;;;10.93;89.32;99654.41;4451275;32;20053;-74
2021/05/12 02:44:38;;;;;;;15.63;9.77;;;;;;;10.91;90.09;99660.50;4452942;32;20098;-75
2021/05/12 02:47:04;;;;;;;19.33;10.48;;;;;;;10.94;90.56;99655.97;4446044;32;20089;-75
2021/05/12 02:49:31;;;;;;;15.77;9.02;;;;;;;10.88;90.70;99664.25;4449728;32;20144;-74
2021/05/12 02:51:56;;;;;;;16.12;9.77;;;;;;;11.03;89.86;99658.78;4448571;32;20041;-75
2021/05/12 02:54:22;;;;;;;14.32;8.35;;;;;;;10.97;89.24;99660.66;4459414;32;20068;-75
2021/05/12 02:56:48;;;;;;;14.63;8.73;;;;;;;11.09;87.59;99668.97;4452759;32;20072;-76
2021/05/12 02:59:14;;;;;;;14.60;8.95;;;;;;;10.93;87.23;99665.66;4451363;32;21157;-74
2021/05/12 03:01:39;;;;;;;16.98;9.88;;;;;;;10.91;87.12;99668.94;4447428;32;20089;-75
2021/05/12 03:04:05;;;;;;;18.83;11.02;;;;;;;10.90;87.02;99680.69;4452363;32;20668;-76
2021/05/12 03:06:30;;;;;;;19.40;11.52;;;;;;;10.84;87.08;99674.09;4450925;32;20835;-74
2021/05/12 03:08:56;;;;;;;20.73;11.82;;;;;;;10.78;87.15;99676.75;4451567;32;20141;-75
2021/05/12 03:11:23;;;;;;;18.48;11.15;;;;;;;10.85;87.18;99673.63;4456582;32;20072;-74
2021/05/12 03:13:48;;;;;;;22.23;11.95;;;;;;;10.81;87.29;99680.66;4442443;32;20087;-76
2021/05/12 03:16:14;;;;;;;23.23;12.82;;;;;;;10.79;87.02;99671.88;4438019;32;20362;-75
2021/05/12 03:18:40;;;;;;;21.50;12.02;;;;;;;10.80;86.87;99657.34;4440993;32;20464;-74
2021/05/12 03:21:05;;;;;;;24.37;13.62;;;;;;;10.82;87.16;99671.75;4442116;32;20042;-75
2021/05/12 03:23:31;;;;;;;24.83;14.55;;;;;;;10.81;88.01;99666.59;4442917;32;20033;-75
2021/05/12 03:25:57;;;;;;;24.90;15.57;;;;;;;10.83;88.12;99664.09;4442314;32;20059;-76
2021/05/12 03:28:23;;;;;;;27.87;16.00;;;;;;;10.86;88.81;99674.41;4441604;32;20085;-73
2021/05/12 03:30:49;;;;;;;29.67;15.98;;;;;;;10.85;88.18;99662.38;4438491;32;20074;-75
2021/05/12 03:33:14;;;;;;;28.12;15.93;;;;;;;10.82;88.52;99670.94;4446602;32;20076;-74
2021/05/12 03:35:41;;;;;;;31.40;16.75;;;;;;;10.83;88.93;99667.66;4429975;32;20111;-76
2021/05/12 03:38:09;;;;;;;31.15;17.10;;;;;;;10.92;89.33;99661.28;4440282;32;20045;-74
2021/05/12 03:40:35;;;;;;;29.12;16.95;;;;;;;10.96;89.45;99667.56;4441905;32;20768;-74
2021/05/12 03:43:01;;;;;;;33.55;16.92;;;;;;;10.96;88.97;99676.78;4442441;32;20080;-74
2021/05/12 03:45:28;;;;;;;29.12;17.40;;;;;;;10.95;88.80;99672.38;4443127;32;20072;-74
2021/05/12 03:47:54;;;;;;;31.87;18.50;;;;;;;10.93;87.87;99668.47;4440276;32;20092;-74
2021/05/12 03:50:23;;;;;;;33.38;19.23;;;;;;;10.85;87.62;99668.00;4444122;32;20075;-75
2021/05/12 03:52:49;;;;;;;29.90;16.30;;;;;;;10.84;88.40;99668.47;4441228;32;20036;-74
2021/05/12 03:55:16;;;;;;;29.17;16.67;;;;;;;10.75;88.46;99669.25;4437287;32;20308;-73
2021/05/12 03:57:43;;;;;;;23.73;13.93;;;;;;;10.57;89.16;99665.56;4444359;32;20025;-75
2021/05/12 04:00:11;;;;;;;24.70;14.13;;;;;;;10.49;88.97;99678.38;4443127;32;20433;-73
2021/05/12 04:02:37;;;;;;;20.95;12.20;;;;;;;10.39;88.95;99677.56;4441067;32;21407;-74
2021/05/12 04:05:03;;;;;;;20.60;12.48;;;;;;;10.25;89.13;99672.50;4443601;32;20129;-75
2021/05/12 04:07:29;;;;;;;19.42;11.07;;;;;;;10.17;89.09;99684.47;4440659;32;20354;-75
2021/05/12 04:09:55;;;;;;;16.50;10.38;;;;;;;10.06;89.72;99688.50;4439331;32;20048;-75
2021/05/12 04:12:22;;;;;;;15.10;8.98;;;;;;;9.97;89.72;99682.00;4441170;32;20130;-75
2021/05/12 04:14:47;;;;;;;16.80;9.55;;;;;;;9.91;89.62;99690.25;4439448;32;20097;-74
2021/05/12 04:17:13;;;;;;;16.20;9.38;;;;;;;9.87;89.47;99683.97;4440899;32;20080;-74
2021/05/12 04:19:39;;;;;;;14.52;9.27;;;;;;;9.84;89.42;99679.28;4441985;32;20501;-74
2021/05/12 04:22:05;;;;;;;16.27;9.40;;;;;;;9.72;89.24;99685.75;4441035;32;20100;-75
2021/05/12 04:24:31;;;;;;;15.40;9.32;;;;;;;9.78;88.79;99683.94;4444075;32;20021;-74
2021/05/12 04:26:57;;;;;;;16.42;9.50;;;;;;;9.76;88.95;99683.59;4438376;32;20107;-73
2021/05/12 04:29:23;;;;;;;17.10;9.45;;;;;;;9.72;89.29;99684.97;4446398;32;20037;-75
2021/05/12 04:31:49;;;;;;;16.98;10.48;;;;;;;9.69;88.95;99683.88;4441594;32;20081;-74
2021/05/12 04:34:14;;;;;;;16.60;10.30;;;;;;;9.65;87.89;99690.84;4428492;32;20104;-74
2021/05/12 04:36:40;;;;;;;15.82;10.52;;;;;;;9.62;88.21;99694.56;4438308;32;20055;-72
2021/05/12 04:39:06;;;;;;;18.25;11.60;;;;;;;9.61;88.37;99699.41;4443035;32;20101;-74
2021/05/12 04:41:33;;;;;;;17.95;11.65;;;;;;;9.50;88.29;99693.41;4441261;32;20119;-73
2021/05/12 04:43:59;;;;;;;20.52;12.10;;;;;;;9.52;88.42;99687.31;4440781;32;20132;-74
2021/05/12 04:46:25;;;;;;;19.62;12.32;;;;;;;9.57;88.52;99686.72;4444526;32;20433;-76
2021/05/12 04:48:53;;;;;;;22.37;13.43;;;;;;;9.56;88.89;99697.19;4442161;32;20479;-74
2021/05/12 04:51:20;;;;;;;22.50;14.02;;;;;;;9.59;88.61;99687.84;4439162;32;20069;-75
2021/05/12 04:53:47;;;;;;;23.70;13.52;;;;;;;9.59;88.61;99698.31;4443653;32;20489;-74
2021/05/12 04:56:13;;;;;;;22.77;14.00;;;;;;;9.58;88.13;99688.31;4439950;32;20840;-74
2021/05/12 04:58:39;;;;;;;23.67;14.40;;;;;;;9.68;87.85;99701.97;4440054;32;20065;-76
2021/05/12 05:01:05;;;;;;;24.00;13.98;;;;;;;9.65;88.31;99700.06;4442484;32;20558;-75
2021/05/12 05:03:31;;;;;;;21.42;13.95;;;;;;;9.69;88.31;99700.72;4438340;32;20097;-75
2021/05/12 05:05:58;;;;;;;27.02;14.40;;;;;;;9.77;88.25;99707.66;4440704;32;20082;-75
2021/05/12 05:08:27;;;;;;;20.75;13.50;;;;;;;9.75;87.76;99712.13;4442972;32;20115;-75
2021/05/12 05:10:53;;;;;;;21.85;13.88;;;;;;;9.87;86.71;99717.69;4440560;32;20037;-75
2021/05/12 05:13:18;;;;;;;22.98;14.18;;;;;;;9.87;86.16;99723.31;4435585;32;20549;-75
2021/05/12 05:15:45;;;;;;;24.02;14.27;;;;;;;9.81;86.29;99724.34;4442001;32;20087;-74
2021/05/12 05:18:11;;;;;;;24.70;14.75;;;;;;;9.73;86.39;99729.44;4430195;32;20438;-73
2021/05/12 05:20:37;;;;;;;24.73;14.48;;;;;;;9.73;86.23;99728.69;4446173;32;20081;-75
2021/05/12 05:23:08;;;;;;;22.87;13.35;;;;;;;9.68;85.84;99729.25;4442848;32;20053;-74
2021/05/12 05:25:33;;;;;;;27.65;14.85;;;;;;;9.72;85.83;99732.72;4439141;32;20517;-74
2021/05/12 05:27:59;;;;;;;24.80;14.82;;;;;;;9.71;86.19;99729.16;4437875;32;20044;-74
2021/05/12 05:30:25;;;;;;;26.52;15.18;;;;;;;9.82;86.66;99735.16;4438017;32;20116;-75
2021/05/12 05:32:51;;;;;;;32.40;16.15;;;;;;;9.85;86.34;99737.03;4441661;32;20037;-75
2021/05/12 05:35:17;;;;;;;25.27;13.77;;;;;;;9.88;86.74;99732.53;4440343;32;20041;-75
2021/05/12 05:37:44;;;;;;;27.70;15.73;;;;;;;9.99;85.64;99733.72;4439617;32;20077;-75
2021/05/12 05:40:11;;;;;;;32.08;16.48;;;;;;;10.09;86.13;99740.97;4438153;32;20052;-74
2021/05/12 05:42:36;;;;;;;31.70;17.12;;;;;;;10.21;85.67;99747.00;4437822;32;20497;-75
2021/05/12 05:45:02;;;;;;;31.08;16.12;;;;;;;10.31;85.75;99748.59;4446367;32;20117;-75
2021/05/12 05:47:28;;;;;;;26.08;14.93;;;;;;;10.30;84.76;99755.44;4437998;32;20045;-75
2021/05/12 05:49:53;;;;;;;28.98;15.77;;;;;;;10.33;84.99;99746.88;4438959;32;20095;-75
2021/05/12 05:52:19;;;;;;;29.55;15.00;;;;;;;10.33;85.04;99746.09;4444168;32;20033;-75
2021/05/12 05:54:45;;;;;;;29.30;15.68;;;;;;;10.32;85.33;99750.16;4440032;32;20383;-75
2021/05/12 05:57:17;;;;;;;25.25;14.27;;;;;;;10.35;84.56;99752.84;4437032;32;20033;-74
2021/05/12 05:59:44;;;;;;;28.65;15.73;;;;;;;10.28;83.90;99763.59;4437919;32;20063;-74
2021/05/12 06:02:10;;;;;;;29.67;14.32;;;;;;;10.27;83.49;99756.41;4441657;32;20175;-74
2021/05/12 06:04:36;;;;;;;23.55;13.25;;;;;;;10.23;82.85;99753.72;4435480;32;20415;-75
2021/05/12 06:07:02;;;;;;;28.15;15.55;;;;;;;10.34;83.79;99761.75;4447741;32;20048;-76
2021/05/12 06:09:29;;;;;;;25.33;14.48;;;;;;;10.49;83.37;99757.13;4440421;32;20460;-75
2021/05/12 06:11:55;;;;;;;26.45;14.35;;;;;;;10.50;82.21;99759.50;4440440;32;20038;-75
2021/05/12 06:14:23;;;;;;;25.65;15.10;;;;;;;10.50;82.25;99762.31;4442086;32;20289;-75
2021/05/12 06:16:49;;;;;;;25.50;14.38;;;;;;;10.65;82.28;99763.28;4440277;32;20033;-75
2021/05/12 06:19:15;;;;;;;33.20;17.15;;;;;;;10.73;81.03;99763.78;4438439;32;20068;-76
2021/05/12 06:21:40;;;;;;;27.50;16.02;;;;;;;10.70;80.80;99762.69;4438516;32;20099;-76
2021/05/12 06:24:06;;;;;;;25.25;15.35;;;;;;;10.77;81.62;99770.06;4434467;32;20045;-76
2021/05/12 06:26:34;;;;;;;24.02;14.25;;;;;;;10.83;81.64;99762.59;4438365;32;20458;-75
2021/05/12 06:29:00;;;;;;;26.30;14.75;;;;;;;10.96;81.86;99763.25;4434043;32;20365;-76
2021/05/12 06:31:26;;;;;;;22.85;14.35;;;;;;;10.97;80.36;99768.41;4436973;32;20489;-76
2021/05/12 06:33:53;;;;;;;23.75;14.05;;;;;;;11.15;79.67;99770.50;4437293;32;20426;-76
2021/05/12 06:36:19;;;;;;;27.67;14.93;;;;;;;11.12;79.27;99777.84;4431843;32;20046;-76
2021/05/12 06:38:46;;;;;;;23.90;13.75;;;;;;;11.16;79.75;99777.69;4429489;32;20473;-75
2021/05/12 06:41:13;;;;;;;28.00;15.60;;;;;;;11.06;78.78;99788.16;4437232;32;20213;-76
2021/05/12 06:43:39;;;;;;;25.37;14.25;;;;;;;11.16;79.36;99783.31;4434881;32;20078;-75
2021/05/12 06:46:06;;;;;;;25.50;15.50;;;;;;;11.25;78.96;99786.16;4432007;32;20486;-76
2021/05/12 06:48:32;;;;;;;25.98;14.48;;;;;;;11.36;78.71;99780.87;4436839;32;20695;-76
2021/05/12 06:50:58;;;;;;;24.25;14.40;;;;;;;11.43;78.51;99783.38;4431338;32;20172;-78
2021/05/12 06:53:27;;;;;;;27.20;14.60;;;;;;;11.57;78.80;99780.72;4436574;32;20064;-79
2021/05/12 06:55:53;;;;;;;25.20;14.68;;;;;;;11.72;78.37;99786.59;4428571;32;20136;-77
2021/05/12 06:58:19;;;;;;;25.12;14.55;;;;;;;11.73;76.49;99790.97;4434770;32;20150;-77
2021/05/12 07:00:45;;;;;;;26.60;15.98;;;;;;;11.60;76.20;99793.13;4435046;32;20577;-75
2021/05/12 07:03:10;;;;;;;24.35;14.77;;;;;;;11.61;76.62;99791.84;4435667;32;20567;-75
2021/05/12 07:05:36;;;;;;;23.95;15.02;;;;;;;11.72;76.64;99786.59;4431131;32;20038;-75
2021/05/12 07:08:02;;;;;;;24.83;14.95;;;;;;;11.74;76.22;99790.50;4431978;32;20118;-76
2021/05/12 07:10:28;;;;;;;23.08;14.82;;;;;;;11.84;76.03;99788.44;4429638;32;20548;-77
2021/05/12 07:12:55;;;;;;;24.27;14.98;;;;;;;12.03;75.34;99790.03;4431835;32;20393;-74
2021/05/12 07:15:20;;;;;;;22.30;13.75;;;;;;;12.09;74.65;99794.53;4432276;32;20085;-76
2021/05/12 07:17:49;;;;;;;24.73;14.80;;;;;;;12.17;74.33;99797.81;4431287;32;20622;-77
2021/05/12 07:20:14;;;;;;;21.23;13.93;;;;;;;12.34;74.47;99793.41;4430866;32;20463;-75
2021/05/12 07:22:41;;;;;;;22.35;13.25;;;;;;;12.33;72.46;99791.84;4429760;32;20073;-74
2021/05/12 07:25:07;;;;;;;21.83;13.43;;;;;;;12.56;72.78;99791.16;4412974;32;20073;-75
2021/05/12 07:27:33;;;;;;;16.23;10.82;;;;;;;12.75;73.02;99789.03;4425788;32;20483;-74
2021/05/12 07:30:00;;;;;;;18.37;10.50;;;;;;;12.89;70.26;99791.19;4427924;32;20469;-75
2021/05/12 07:32:26;;;;;;;17.60;10.50;;;;;;;13.04;70.04;99798.53;4429712;32;20077;-73
2021/05/12 07:34:52;;;;;;;14.93;9.98;;;;;;;13.11;69.68;99800.22;4427512;32;20413;-76
2021/05/12 07:37:19;;;;;;;24.27;13.57;;;;;;;13.24;70.54;99798.75;4429427;32;20045;-74
2021/05/12 07:39:45;;;;;;;17.60;10.50;;;;;;;13.29;69.90;99805.78;4430301;32;20098;-77
2021/05/12 07:42:12;;;;;;;19.35;10.07;;;;;;;13.19;68.06;99819.16;4431360;32;20574;-75
2021/05/12 07:44:38;;;;;;;13.90;8.15;;;;;;;13.34;68.47;99822.06;4429717;32;20137;-75
2021/05/12 07:47:04;;;;;;;18.77;9.65;;;;;;;13.45;67.76;99825.16;4433541;32;20972;-77
2021/05/12 07:49:30;;;;;;;11.82;7.53;;;;;;;13.92;69.19;99827.97;4433753;32;20461;-75
2021/05/12 07:51:56;;;;;;;11.82;6.85;;;;;;;14.48;66.69;99827.78;4434243;32;20437;-76
2021/05/12 07:54:22;;;;;;;13.68;7.03;;;;;;;14.51;63.30;99832.47;4434848;32;20128;-77
2021/05/12 07:56:48;;;;;;;11.43;7.47;;;;;;;14.64;63.57;99830.16;4431616;32;20382;-76
2021/05/12 07:59:15;;;;;;;9.32;5.90;;;;;;;14.61;63.18;99838.84;4433207;32;20060;-75
2021/05/12 08:01:45;;;;;;;10.20;5.47;;;;;;;14.41;62.19;99833.84;4430290;32;20083;-75
2021/05/12 08:04:11;;;;;;;9.95;6.22;;;;;;;14.43;61.73;99845.47;4430964;32;20089;-75
2021/05/12 08:06:37;;;;;;;12.35;7.10;;;;;;;14.53;61.74;99832.78;4430621;32;20169;-76
2021/05/12 08:09:05;;;;;;;19.67;7.05;;;;;;;14.65;62.25;99840.22;4418800;32;20080;-77
2021/05/12 08:11:31;;;;;;;10.38;6.30;;;;;;;14.89;62.37;99838.06;4433814;32;20053;-76
2021/05/12 08:13:57;;;;;;;12.95;7.55;;;;;;;15.20;60.21;99840.34;4432533;32;20077;-76
2021/05/12 08:16:23;;;;;;;15.20;6.80;;;;;;;15.26;60.35;99832.72;4431641;32;20752;-76
2021/05/12 08:18:48;;;;;;;12.30;6.57;;;;;;;15.14;60.41;99828.94;4430540;32;20044;-77
2021/05/12 08:21:14;;;;;;;11.05;6.28;;;;;;;15.25;59.71;99834.00;4432472;32;20148;-78
2021/05/12 08:23:40;;;;;;;14.80;6.93;;;;;;;15.44;59.00;99829.66;4434105;32;20099;-77
2021/05/12 08:26:06;;;;;;;11.95;6.03;;;;;;;15.22;58.92;99834.97;4433462;32;20115;-75
2021/05/12 08:28:31;;;;;;;15.60;7.78;;;;;;;15.32;58.73;99833.56;4432514;32;20145;-76
2021/05/12 08:30:57;;;;;;;12.43;6.57;;;;;;;15.30;59.21;99845.41;4433954;32;20054;-76
2021/05/12 08:33:24;;;;;;;10.38;5.18;;;;;;;15.36;59.02;99831.31;4433425;32;20077;-76
2021/05/12 08:35:51;;;;;;;10.15;4.30;;;;;;;15.76;58.05;99842.75;4431858;32;20076;-75
2021/05/12 08:38:19;;;;;;;6.60;4.28;;;;;;;16.19;56.51;99841.72;4431813;32;20046;-76
2021/05/12 08:40:47;;;;;;;7.65;4.03;;;;;;;16.02;55.87;99843.59;4431918;32;20477;-77
2021/05/12 08:43:15;;;;;;;7.00;3.33;;;;;;;16.45;54.95;99825.53;4436146;32;20140;-77
2021/05/12 08:45:43;;;;;;;8.75;3.70;;;;;;;16.91;53.02;99831.91;4432197;32;20995;-77
2021/05/12 08:48:13;;;;;;;5.72;2.92;;;;;;;17.49;53.04;99830.56;4435031;32;20429;-74
2021/05/12 08:50:39;;;;;;;6.90;2.60;;;;;;;17.98;50.24;99849.19;4431054;32;20029;-75
2021/05/12 08:53:05;;;;;;;7.57;2.87;;;;;;;18.44;49.49;99838.25;4430170;32;20092;-77
2021/05/12 08:55:32;;;;;;;6.20;2.50;;;;;;;18.22;49.98;99847.47;4432210;32;20100;-75
2021/05/12 08:57:59;;;;;;;6.30;2.80;;;;;;;18.21;49.20;99842.28;4432670;32;20148;-74
2021/05/12 09:00:26;;;;;;;7.65;2.50;;;;;;;18.25;49.05;99845.69;4432189;32;20096;-77
2021/05/12 09:02:51;;;;;;;6.37;2.28;;;;;;;18.29;48.33;99844.16;4430101;32;20458;-75
2021/05/12 09:05:19;;;;;;;6.45;2.00;;;;;;;18.58;47.84;99843.72;4431644;32;20080;-77
2021/05/12 09:07:46;;;;;;;4.95;1.80;;;;;;;18.85;46.54;99837.28;4431456;32;20544;-78
2021/05/12 09:10:13;;;;;;;5.43;2.30;;;;;;;18.96;45.36;99850.78;4431283;32;20127;-78
2021/05/12 09:15:24;;;;;;;5.30;2.05;;;;;;;19.40;44.35;99862.22;3975382;32;15027653;-76
2021/05/12 09:17:51;;;;;;;7.05;2.50;;;;;;;19.40;44.35;99862.22;4431917;32;20053;-77
2021/05/12 09:25:38;;;;;;;5.70;2.35;;;;;;;19.80;42.98;99870.19;3969261;32;15023369;-79
2021/05/12 09:28:21;;;;;;;3.40;2.00;;;;;;;19.80;42.98;99870.19;4422519;32;20084;-78
2021/05/12 09:30:49;;;;;;;7.28;2.00;;;;;;;19.24;42.45;99860.12;4421924;32;20069;-76
2021/05/12 09:33:36;;;;;;;7.93;2.47;;;;;;;18.92;43.41;99856.72;4423597;32;20053;-77
2021/05/12 09:36:02;;;;;;;10.15;2.53;;;;;;;18.78;43.96;99854.88;4424549;32;20073;-78
2021/05/12 09:38:31;;;;;;;6.22;2.95;;;;;;;18.68;44.93;99861.38;4423422;32;20142;-75
2021/05/12 09:43:40;;;;;;;4.18;2.30;;;;;;;18.14;45.94;99859.88;3958467;32;15030290;-77
2021/05/12 09:46:27;;;;;;;6.18;2.60;;;;;;;18.14;45.94;99859.88;4410005;32;20069;-77
2021/05/12 09:51:39;;;;;;;6.93;2.30;;;;;;;17.94;46.07;99852.28;3976260;32;15061426;-79
2021/05/12 10:01:57;;;;;;;4.25;2.08;;;;;;;16.87;49.04;99862.63;3964796;32;15021832;-75
2021/05/12 10:07:03;;;;;;;4.45;1.70;;;;;;;18.69;43.76;99869.41;3974564;32;15023235;-76
2021/05/12 10:09:30;;;;;;;12.05;2.85;;;;;;;18.69;43.76;99869.41;4430772;32;20032;-76
2021/05/12 10:12:03;;;;;;;13.77;2.85;;;;;;;18.41;43.63;99860.00;4429128;32;20173;-78
2021/05/12 10:14:29;;;;;;;7.68;1.73;;;;;;;18.92;42.95;99839.63;4430769;32;20072;-75
2021/05/12 10:16:56;;;;;;;6.07;1.70;;;;;;;19.51;41.61;99850.75;4429985;32;20436;-80
2021/05/12 10:19:23;;;;;;;5.72;1.40;;;;;;;19.63;40.61;99858.78;4431134;32;20431;-79
2021/05/12 10:21:48;;;;;;;5.62;1.40;;;;;;;19.10;40.18;99849.72;4430052;32;20071;-76
2021/05/12 10:24:14;;;;;;;11.95;1.77;;;;;;;19.10;41.29;99855.44;4430433;32;20501;-74
2021/05/12 10:26:43;;;;;;;13.85;1.75;;;;;;;18.80;41.62;99852.31;4430106;32;20092;-76
2021/05/12 10:29:14;;;;;;;11.25;1.50;;;;;;;18.57;42.82;99849.94;4428185;32;20405;-77
2021/05/12 10:31:41;;;;;;;11.10;2.45;;;;;;;18.62;42.71;99858.50;4428763;32;20033;-75
2021/05/12 10:34:07;;;;;;;7.25;1.83;;;;;;;18.27;43.93;99871.56;4431203;32;20386;-78
2021/05/12 10:36:33;;;;;;;9.45;2.00;;;;;;;18.23;44.26;99854.75;4429359;32;20059;-79
2021/05/12 10:39:03;;;;;;;6.18;1.60;;;;;;;18.05;44.95;99849.50;4431229;32;20084;-79
2021/05/12 10:41:47;;;;;;;3.12;1.37;;;;;;;18.09;44.60;99850.00;4425176;32;20104;-77
2021/05/12 10:47:18;;;;;;;6.57;1.83;;;;;;;18.90;44.05;99847.16;3979041;32;15028383;-78
2021/05/12 10:49:53;;;;;;;3.55;1.20;;;;;;;18.90;44.05;99847.16;4428968;32;20030;-76
2021/05/12 10:52:19;;;;;;;8.55;1.52;;;;;;;19.10;41.78;99846.88;4427800;32;20085;-75
2021/05/12 10:54:50;;;;;;;8.88;1.55;;;;;;;19.20;41.48;99853.88;4430133;32;20220;-73
2021/05/12 11:00:15;;;;;;;5.72;1.60;;;;;;;20.23;40.40;99865.66;3977553;32;15024629;-79
2021/05/12 11:03:02;;;;;;;7.53;1.90;;;;;;;20.23;40.40;99865.66;4414563;32;20073;-78
2021/05/12 11:08:34;;;;;;;3.03;1.40;;;;;;;20.00;40.14;99854.81;3979451;32;15022069;-74
2021/05/12 11:13:35;;;;;;;5.78;1.20;;;;;;;19.66;41.07;99874.88;3973463;32;15030615;-76
2021/05/12 11:16:04;;;;;;;4.57;1.40;;;;;;;19.66;41.07;99874.88;4437643;32;20575;-77
2021/05/12 11:24:18;;;;;;;15.00;2.03;;;;;;;20.33;40.51;99871.81;3968675;32;15024197;-74
2021/05/12 11:26:52;;;;;;;6.35;1.58;;;;;;;20.33;40.51;99871.81;4421750;32;20057;-74
2021/05/12 11:32:12;;;;;;;2.85;1.12;;;;;;;21.64;38.23;99863.63;3976304;32;15022972;-77
2021/05/12 11:34:39;;;;;;;16.98;1.70;;;;;;;21.64;38.23;99863.63;4427790;32;20399;-74
2021/05/12 11:37:18;;;;;;;5.25;1.10;;;;;;;21.18;38.11;99864.56;4426859;32;20069;-76
2021/05/12 11:39:47;;;;;;;5.25;1.83;;;;;;;21.03;38.65;99867.03;4429842;32;20108;-77
2021/05/12 11:47:41;;;;;;;9.07;1.60;;;;;;;20.96;38.17;99872.53;3990290;31;15017073;-74
2021/05/12 11:50:24;;;;;;;1.73;0.77;;;;;;;20.00;39.32;99869.84;4440719;32;20167;-73
2021/05/12 11:52:51;;;;;;;4.97;1.48;;;;;;;19.78;38.58;99869.91;4439497;32;20133;-76
2021/05/12 11:55:21;;;;;;;6.57;1.17;;;;;;;19.53;40.05;99871.00;4441023;32;20140;-79
2021/05/12 11:57:47;;;;;;;6.45;1.08;;;;;;;19.39;41.26;99872.81;4437873;32;20095;-78
2021/05/12 12:00:17;;;;;;;6.80;1.20;;;;;;;19.25;41.77;99873.88;4445802;32;20123;-80
2021/05/12 12:03:01;;;;;;;6.62;1.45;;;;;;;19.30;41.99;99867.38;4431481;32;20591;-77
2021/05/12 12:05:38;;;;;;;5.20;1.17;;;;;;;19.46;41.82;99871.53;4427804;32;20138;-78
2021/05/12 12:10:46;;;;;;;6.00;1.12;;;;;;;21.22;39.28;99870.75;3989893;31;15142320;-75
2021/05/12 12:13:14;;;;;;;6.68;1.30;;;;;;;21.22;39.28;99870.75;4452648;32;20106;-73
2021/05/12 12:15:44;;;;;;;5.72;1.30;;;;;;;20.86;38.88;99871.28;4437515;32;20414;-72
2021/05/12 12:18:10;;;;;;;1.80;1.00;;;;;;;20.88;38.58;99869.44;4452491;32;20072;-72
2021/05/12 12:20:36;;;;;;;5.40;1.02;;;;;;;21.00;37.78;99873.00;4453033;32;20183;-73
2021/05/12 12:23:03;;;;;;;2.47;0.82;;;;;;;20.79;38.20;99875.47;4454560;32;20278;-75